sensor_id;sensor_type;location;lat;lon;timestamp;P1;durP1;ratioP1;P2;durP2;ratioP2
4011;SDS011;2020;48.682;9.024;2023-08-24T00:02:09;5.33;;;5.03;;
4011;SDS011;2020;48.682;9.024;2023-08-24T00:04:35;5.90;;;5.50;;
4011;SDS011;2020;48.682;9.024;2023-08-24T00:07:01;4.90;;;4.70;;
4011;SDS011;2020;48.682;9.024;2023-08-24T00:09:26;4.53;;;4.43;;
4011;SDS011;2020;48.682;9.024;2023-08-24T00:11:54;5.50;;;5.10;;
4011;SDS011;2020;48.682;9.024;2023-08-24T00:14:20;5.20;;;4.90;;
4011;SDS011;2020;48.682;9.024;2023-08-24T00:16:46;5.70;;;5.40;;
4011;SDS011;2020;48.682;9.024;2023-08-24T00:19:11;5.20;;;5.00;;
4011;SDS011;2020;48.682;9.024;2023-08-24T00:21:36;4.97;;;4.77;;
4011;SDS011;2020;48.682;9.024;2023-08-24T00:24:02;6.10;;;5.50;;
4011;SDS011;2020;48.682;9.024;2023-08-24T00:26:27;5.17;;;4.97;;
4011;SDS011;2020;48.682;9.024;2023-08-24T00:28:53;4.93;;;4.73;;
4011;SDS011;2020;48.682;9.024;2023-08-24T00:31:18;5.90;;;5.60;;
4011;SDS011;2020;48.682;9.024;2023-08-24T00:33:43;5.57;;;5.17;;
4011;SDS011;2020;48.682;9.024;2023-08-24T00:36:08;5.90;;;5.40;;
4011;SDS011;2020;48.682;9.024;2023-08-24T00:38:34;5.67;;;5.27;;
4011;SDS011;2020;48.682;9.024;2023-08-24T00:40:59;5.53;;;5.33;;
4011;SDS011;2020;48.682;9.024;2023-08-24T00:43:25;4.83;;;4.63;;
4011;SDS011;2020;48.682;9.024;2023-08-24T00:45:51;5.20;;;5.00;;
4011;SDS011;2020;48.682;9.024;2023-08-24T00:48:17;6.03;;;5.73;;
4011;SDS011;2020;48.682;9.024;2023-08-24T00:50:43;5.77;;;5.50;;
4011;SDS011;2020;48.682;9.024;2023-08-24T00:53:09;5.20;;;5.00;;
4011;SDS011;2020;48.682;9.024;2023-08-24T00:55:34;5.20;;;5.00;;
4011;SDS011;2020;48.682;9.024;2023-08-24T00:57:59;5.37;;;4.87;;
4011;SDS011;2020;48.682;9.024;2023-08-24T01:00:25;6.07;;;5.27;;
4011;SDS011;2020;48.682;9.024;2023-08-24T01:02:50;5.50;;;5.30;;
4011;SDS011;2020;48.682;9.024;2023-08-24T01:05:15;5.40;;;5.00;;
4011;SDS011;2020;48.682;9.024;2023-08-24T01:07:40;5.40;;;5.13;;
4011;SDS011;2020;48.682;9.024;2023-08-24T01:10:06;6.23;;;5.73;;
4011;SDS011;2020;48.682;9.024;2023-08-24T01:12:39;5.57;;;5.13;;
4011;SDS011;2020;48.682;9.024;2023-08-24T01:15:26;6.50;;;6.00;;
4011;SDS011;2020;48.682;9.024;2023-08-24T01:18:04;5.87;;;5.57;;
4011;SDS011;2020;48.682;9.024;2023-08-24T01:20:38;5.27;;;4.97;;
4011;SDS011;2020;48.682;9.024;2023-08-24T01:23:15;5.90;;;5.60;;
4011;SDS011;2020;48.682;9.024;2023-08-24T01:25:52;5.40;;;5.10;;
4011;SDS011;2020;48.682;9.024;2023-08-24T01:28:22;9.97;;;5.67;;
4011;SDS011;2020;48.682;9.024;2023-08-24T01:30:48;6.03;;;5.80;;
4011;SDS011;2020;48.682;9.024;2023-08-24T01:33:14;6.10;;;5.60;;
4011;SDS011;2020;48.682;9.024;2023-08-24T01:35:40;6.47;;;6.17;;
4011;SDS011;2020;48.682;9.024;2023-08-24T01:38:06;5.60;;;5.30;;
4011;SDS011;2020;48.682;9.024;2023-08-24T01:43:21;6.50;;;6.00;;
4011;SDS011;2020;48.682;9.024;2023-08-24T01:45:54;5.80;;;5.37;;
4011;SDS011;2020;48.682;9.024;2023-08-24T01:48:22;5.30;;;5.10;;
4011;SDS011;2020;48.682;9.024;2023-08-24T01:50:49;6.43;;;6.07;;
4011;SDS011;2020;48.682;9.024;2023-08-24T01:53:15;6.30;;;6.00;;
4011;SDS011;2020;48.682;9.024;2023-08-24T01:55:41;6.50;;;6.00;;
4011;SDS011;2020;48.682;9.024;2023-08-24T01:58:06;6.37;;;5.93;;
4011;SDS011;2020;48.682;9.024;2023-08-24T02:00:31;5.40;;;5.20;;
4011;SDS011;2020;48.682;9.024;2023-08-24T02:02:57;6.67;;;6.27;;
4011;SDS011;2020;48.682;9.024;2023-08-24T02:05:22;6.37;;;5.90;;
4011;SDS011;2020;48.682;9.024;2023-08-24T02:07:52;6.33;;;5.73;;
4011;SDS011;2020;48.682;9.024;2023-08-24T02:10:17;7.03;;;6.40;;
4011;SDS011;2020;48.682;9.024;2023-08-24T02:12:42;6.97;;;6.47;;
4011;SDS011;2020;48.682;9.024;2023-08-24T02:15:08;5.53;;;5.33;;
4011;SDS011;2020;48.682;9.024;2023-08-24T02:17:33;6.03;;;5.70;;
4011;SDS011;2020;48.682;9.024;2023-08-24T02:19:59;6.60;;;6.20;;
4011;SDS011;2020;48.682;9.024;2023-08-24T02:22:24;6.27;;;5.77;;
4011;SDS011;2020;48.682;9.024;2023-08-24T02:24:49;6.33;;;5.93;;
4011;SDS011;2020;48.682;9.024;2023-08-24T02:27:15;6.07;;;5.87;;
4011;SDS011;2020;48.682;9.024;2023-08-24T02:29:40;6.17;;;5.60;;
4011;SDS011;2020;48.682;9.024;2023-08-24T02:32:05;5.53;;;5.17;;
4011;SDS011;2020;48.682;9.024;2023-08-24T02:34:30;7.00;;;6.60;;
4011;SDS011;2020;48.682;9.024;2023-08-24T02:36:56;6.10;;;5.80;;
4011;SDS011;2020;48.682;9.024;2023-08-24T02:39:22;8.13;;;7.07;;
4011;SDS011;2020;48.682;9.024;2023-08-24T02:41:47;6.90;;;6.47;;
4011;SDS011;2020;48.682;9.024;2023-08-24T02:44:12;6.93;;;6.50;;
4011;SDS011;2020;48.682;9.024;2023-08-24T02:46:37;5.70;;;5.30;;
4011;SDS011;2020;48.682;9.024;2023-08-24T02:49:03;7.60;;;7.00;;
4011;SDS011;2020;48.682;9.024;2023-08-24T02:51:28;12.27;;;5.90;;
4011;SDS011;2020;48.682;9.024;2023-08-24T02:53:53;7.10;;;6.40;;
4011;SDS011;2020;48.682;9.024;2023-08-24T02:56:18;7.10;;;6.50;;
4011;SDS011;2020;48.682;9.024;2023-08-24T02:58:44;6.37;;;5.93;;
4011;SDS011;2020;48.682;9.024;2023-08-24T03:01:09;6.83;;;6.33;;
4011;SDS011;2020;48.682;9.024;2023-08-24T03:03:35;7.10;;;6.70;;
4011;SDS011;2020;48.682;9.024;2023-08-24T03:06:02;7.37;;;6.80;;
4011;SDS011;2020;48.682;9.024;2023-08-24T03:08:29;7.20;;;6.80;;
4011;SDS011;2020;48.682;9.024;2023-08-24T03:10:55;7.80;;;7.17;;
4011;SDS011;2020;48.682;9.024;2023-08-24T03:13:21;6.20;;;5.93;;
4011;SDS011;2020;48.682;9.024;2023-08-24T03:15:46;6.50;;;6.20;;
4011;SDS011;2020;48.682;9.024;2023-08-24T03:18:11;7.00;;;6.60;;
4011;SDS011;2020;48.682;9.024;2023-08-24T03:20:38;7.30;;;6.97;;
4011;SDS011;2020;48.682;9.024;2023-08-24T03:23:03;6.77;;;6.30;;
4011;SDS011;2020;48.682;9.024;2023-08-24T03:25:28;6.50;;;6.20;;
4011;SDS011;2020;48.682;9.024;2023-08-24T03:27:54;6.53;;;6.20;;
4011;SDS011;2020;48.682;9.024;2023-08-24T03:30:20;6.73;;;6.20;;
4011;SDS011;2020;48.682;9.024;2023-08-24T03:32:45;6.73;;;6.43;;
4011;SDS011;2020;48.682;9.024;2023-08-24T03:35:10;7.27;;;6.87;;
4011;SDS011;2020;48.682;9.024;2023-08-24T03:37:36;6.20;;;5.87;;
4011;SDS011;2020;48.682;9.024;2023-08-24T03:40:01;7.20;;;6.80;;
4011;SDS011;2020;48.682;9.024;2023-08-24T03:42:27;9.17;;;6.80;;
4011;SDS011;2020;48.682;9.024;2023-08-24T03:44:53;6.97;;;6.43;;
4011;SDS011;2020;48.682;9.024;2023-08-24T03:47:18;6.60;;;6.20;;
4011;SDS011;2020;48.682;9.024;2023-08-24T03:49:43;6.30;;;6.00;;
4011;SDS011;2020;48.682;9.024;2023-08-24T03:52:09;7.20;;;6.60;;
4011;SDS011;2020;48.682;9.024;2023-08-24T03:54:34;7.77;;;7.30;;
4011;SDS011;2020;48.682;9.024;2023-08-24T03:57:01;6.50;;;5.97;;
4011;SDS011;2020;48.682;9.024;2023-08-24T03:59:27;8.40;;;7.80;;
4011;SDS011;2020;48.682;9.024;2023-08-24T04:01:52;7.90;;;7.40;;
4011;SDS011;2020;48.682;9.024;2023-08-24T04:04:17;8.23;;;7.53;;
4011;SDS011;2020;48.682;9.024;2023-08-24T04:06:43;7.33;;;6.80;;
4011;SDS011;2020;48.682;9.024;2023-08-24T04:09:08;6.80;;;6.33;;
4011;SDS011;2020;48.682;9.024;2023-08-24T04:11:34;8.87;;;7.43;;
4011;SDS011;2020;48.682;9.024;2023-08-24T04:13:59;7.37;;;6.77;;
4011;SDS011;2020;48.682;9.024;2023-08-24T04:16:25;6.73;;;6.33;;
4011;SDS011;2020;48.682;9.024;2023-08-24T04:18:50;6.57;;;6.27;;
4011;SDS011;2020;48.682;9.024;2023-08-24T04:21:15;7.43;;;7.00;;
4011;SDS011;2020;48.682;9.024;2023-08-24T04:23:41;7.30;;;6.80;;
4011;SDS011;2020;48.682;9.024;2023-08-24T04:26:10;7.80;;;7.30;;
4011;SDS011;2020;48.682;9.024;2023-08-24T04:28:38;6.90;;;6.50;;
4011;SDS011;2020;48.682;9.024;2023-08-24T04:31:03;6.60;;;6.30;;
4011;SDS011;2020;48.682;9.024;2023-08-24T04:33:28;7.67;;;7.27;;
4011;SDS011;2020;48.682;9.024;2023-08-24T04:35:54;7.30;;;6.83;;
4011;SDS011;2020;48.682;9.024;2023-08-24T04:38:19;10.10;;;6.63;;
4011;SDS011;2020;48.682;9.024;2023-08-24T04:40:49;8.10;;;7.50;;
4011;SDS011;2020;48.682;9.024;2023-08-24T04:43:16;7.10;;;6.50;;
4011;SDS011;2020;48.682;9.024;2023-08-24T04:45:41;9.53;;;7.13;;
4011;SDS011;2020;48.682;9.024;2023-08-24T04:48:06;6.23;;;6.00;;
4011;SDS011;2020;48.682;9.024;2023-08-24T04:50:32;7.80;;;6.50;;
4011;SDS011;2020;48.682;9.024;2023-08-24T04:52:57;7.00;;;6.53;;
4011;SDS011;2020;48.682;9.024;2023-08-24T04:55:22;6.43;;;6.13;;
4011;SDS011;2020;48.682;9.024;2023-08-24T04:57:48;6.73;;;6.43;;
4011;SDS011;2020;48.682;9.024;2023-08-24T05:00:13;6.30;;;5.67;;
4011;SDS011;2020;48.682;9.024;2023-08-24T05:02:41;6.70;;;6.20;;
4011;SDS011;2020;48.682;9.024;2023-08-24T05:05:07;7.10;;;6.50;;
4011;SDS011;2020;48.682;9.024;2023-08-24T05:07:35;7.57;;;7.07;;
4011;SDS011;2020;48.682;9.024;2023-08-24T05:10:00;7.57;;;7.07;;
4011;SDS011;2020;48.682;9.024;2023-08-24T05:12:25;7.30;;;6.80;;
4011;SDS011;2020;48.682;9.024;2023-08-24T05:14:51;7.87;;;7.27;;
4011;SDS011;2020;48.682;9.024;2023-08-24T05:17:16;8.87;;;8.07;;
4011;SDS011;2020;48.682;9.024;2023-08-24T05:19:41;8.70;;;7.57;;
4011;SDS011;2020;48.682;9.024;2023-08-24T05:22:06;8.03;;;7.13;;
4011;SDS011;2020;48.682;9.024;2023-08-24T05:24:32;8.43;;;7.67;;
4011;SDS011;2020;48.682;9.024;2023-08-24T05:26:57;8.13;;;7.40;;
4011;SDS011;2020;48.682;9.024;2023-08-24T05:29:22;8.47;;;7.70;;
4011;SDS011;2020;48.682;9.024;2023-08-24T05:31:47;8.40;;;7.80;;
4011;SDS011;2020;48.682;9.024;2023-08-24T05:34:13;9.00;;;8.10;;
4011;SDS011;2020;48.682;9.024;2023-08-24T05:36:38;7.10;;;6.70;;
4011;SDS011;2020;48.682;9.024;2023-08-24T05:39:03;7.93;;;7.20;;
4011;SDS011;2020;48.682;9.024;2023-08-24T05:41:28;8.03;;;7.43;;
4011;SDS011;2020;48.682;9.024;2023-08-24T05:43:54;7.00;;;6.70;;
4011;SDS011;2020;48.682;9.024;2023-08-24T05:46:19;6.90;;;6.40;;
4011;SDS011;2020;48.682;9.024;2023-08-24T05:48:44;6.80;;;6.37;;
4011;SDS011;2020;48.682;9.024;2023-08-24T05:51:10;7.83;;;7.23;;
4011;SDS011;2020;48.682;9.024;2023-08-24T05:53:37;6.90;;;6.50;;
4011;SDS011;2020;48.682;9.024;2023-08-24T05:56:03;7.60;;;7.00;;
4011;SDS011;2020;48.682;9.024;2023-08-24T05:58:28;7.20;;;6.90;;
4011;SDS011;2020;48.682;9.024;2023-08-24T06:00:57;6.20;;;5.90;;
4011;SDS011;2020;48.682;9.024;2023-08-24T06:03:24;8.10;;;7.50;;
4011;SDS011;2020;48.682;9.024;2023-08-24T06:05:50;7.30;;;6.77;;
4011;SDS011;2020;48.682;9.024;2023-08-24T06:08:15;7.60;;;6.87;;
4011;SDS011;2020;48.682;9.024;2023-08-24T06:10:41;6.63;;;6.13;;
4011;SDS011;2020;48.682;9.024;2023-08-24T06:13:06;7.47;;;7.07;;
4011;SDS011;2020;48.682;9.024;2023-08-24T06:15:31;7.77;;;7.07;;
4011;SDS011;2020;48.682;9.024;2023-08-24T06:17:56;7.50;;;6.87;;
4011;SDS011;2020;48.682;9.024;2023-08-24T06:20:24;7.90;;;7.40;;
4011;SDS011;2020;48.682;9.024;2023-08-24T06:22:49;6.93;;;6.37;;
4011;SDS011;2020;48.682;9.024;2023-08-24T06:25:15;6.83;;;6.43;;
4011;SDS011;2020;48.682;9.024;2023-08-24T06:27:40;7.03;;;6.53;;
4011;SDS011;2020;48.682;9.024;2023-08-24T06:30:06;7.30;;;6.80;;
4011;SDS011;2020;48.682;9.024;2023-08-24T06:32:32;7.13;;;6.63;;
4011;SDS011;2020;48.682;9.024;2023-08-24T06:34:57;6.73;;;6.33;;
4011;SDS011;2020;48.682;9.024;2023-08-24T06:37:22;6.30;;;5.90;;
4011;SDS011;2020;48.682;9.024;2023-08-24T06:39:48;7.47;;;7.07;;
4011;SDS011;2020;48.682;9.024;2023-08-24T06:42:13;6.33;;;6.03;;
4011;SDS011;2020;48.682;9.024;2023-08-24T06:44:38;6.83;;;6.50;;
4011;SDS011;2020;48.682;9.024;2023-08-24T06:47:03;8.13;;;6.90;;
4011;SDS011;2020;48.682;9.024;2023-08-24T06:49:29;6.27;;;5.80;;
4011;SDS011;2020;48.682;9.024;2023-08-24T06:51:54;7.77;;;7.07;;
4011;SDS011;2020;48.682;9.024;2023-08-24T06:54:20;10.20;;;7.30;;
4011;SDS011;2020;48.682;9.024;2023-08-24T06:56:45;8.20;;;6.87;;
4011;SDS011;2020;48.682;9.024;2023-08-24T06:59:10;6.40;;;6.00;;
4011;SDS011;2020;48.682;9.024;2023-08-24T07:01:38;7.50;;;7.10;;
4011;SDS011;2020;48.682;9.024;2023-08-24T07:04:03;7.50;;;6.77;;
4011;SDS011;2020;48.682;9.024;2023-08-24T07:06:28;8.53;;;7.73;;
4011;SDS011;2020;48.682;9.024;2023-08-24T07:08:54;8.03;;;7.50;;
4011;SDS011;2020;48.682;9.024;2023-08-24T07:11:19;8.10;;;7.50;;
4011;SDS011;2020;48.682;9.024;2023-08-24T07:13:45;7.50;;;7.00;;
4011;SDS011;2020;48.682;9.024;2023-08-24T07:16:11;8.20;;;7.60;;
4011;SDS011;2020;48.682;9.024;2023-08-24T07:18:36;8.17;;;7.57;;
4011;SDS011;2020;48.682;9.024;2023-08-24T07:21:01;8.87;;;8.10;;
4011;SDS011;2020;48.682;9.024;2023-08-24T07:23:27;8.07;;;7.40;;
4011;SDS011;2020;48.682;9.024;2023-08-24T07:25:53;11.40;;;6.33;;
4011;SDS011;2020;48.682;9.024;2023-08-24T07:28:18;7.87;;;7.27;;
4011;SDS011;2020;48.682;9.024;2023-08-24T07:30:44;7.60;;;7.20;;
4011;SDS011;2020;48.682;9.024;2023-08-24T07:33:09;7.03;;;6.37;;
4011;SDS011;2020;48.682;9.024;2023-08-24T07:35:35;6.90;;;6.50;;
4011;SDS011;2020;48.682;9.024;2023-08-24T07:38:00;6.63;;;6.17;;
4011;SDS011;2020;48.682;9.024;2023-08-24T07:40:26;6.20;;;5.83;;
4011;SDS011;2020;48.682;9.024;2023-08-24T07:42:51;6.20;;;5.77;;
4011;SDS011;2020;48.682;9.024;2023-08-24T07:45:20;6.23;;;5.63;;
4011;SDS011;2020;48.682;9.024;2023-08-24T07:47:45;5.67;;;5.27;;
4011;SDS011;2020;48.682;9.024;2023-08-24T07:50:10;8.80;;;6.00;;
4011;SDS011;2020;48.682;9.024;2023-08-24T07:52:37;6.40;;;6.10;;
4011;SDS011;2020;48.682;9.024;2023-08-24T07:55:06;6.27;;;5.87;;
4011;SDS011;2020;48.682;9.024;2023-08-24T07:57:35;5.60;;;5.20;;
4011;SDS011;2020;48.682;9.024;2023-08-24T08:00:01;4.70;;;4.50;;
4011;SDS011;2020;48.682;9.024;2023-08-24T08:02:28;5.20;;;5.00;;
4011;SDS011;2020;48.682;9.024;2023-08-24T08:04:56;5.13;;;4.73;;
4011;SDS011;2020;48.682;9.024;2023-08-24T08:07:23;4.80;;;4.60;;
4011;SDS011;2020;48.682;9.024;2023-08-24T08:09:48;4.70;;;4.20;;
4011;SDS011;2020;48.682;9.024;2023-08-24T08:12:13;4.77;;;4.57;;
4011;SDS011;2020;48.682;9.024;2023-08-24T08:14:39;4.90;;;4.70;;
4011;SDS011;2020;48.682;9.024;2023-08-24T08:17:04;5.13;;;4.83;;
4011;SDS011;2020;48.682;9.024;2023-08-24T08:19:29;4.20;;;4.00;;
4011;SDS011;2020;48.682;9.024;2023-08-24T08:21:55;4.57;;;4.37;;
4011;SDS011;2020;48.682;9.024;2023-08-24T08:24:21;4.77;;;4.57;;
4011;SDS011;2020;48.682;9.024;2023-08-24T08:26:46;4.30;;;4.10;;
4011;SDS011;2020;48.682;9.024;2023-08-24T08:29:11;5.40;;;5.20;;
4011;SDS011;2020;48.682;9.024;2023-08-24T08:31:36;5.20;;;4.83;;
4011;SDS011;2020;48.682;9.024;2023-08-24T08:34:02;5.00;;;4.73;;
4011;SDS011;2020;48.682;9.024;2023-08-24T08:36:29;5.27;;;4.97;;
4011;SDS011;2020;48.682;9.024;2023-08-24T08:38:55;4.23;;;4.13;;
4011;SDS011;2020;48.682;9.024;2023-08-24T08:41:21;4.80;;;4.60;;
4011;SDS011;2020;48.682;9.024;2023-08-24T08:43:48;6.80;;;4.90;;
4011;SDS011;2020;48.682;9.024;2023-08-24T08:46:14;5.20;;;4.97;;
4011;SDS011;2020;48.682;9.024;2023-08-24T08:48:41;7.20;;;4.40;;
4011;SDS011;2020;48.682;9.024;2023-08-24T08:51:07;4.53;;;4.33;;
4011;SDS011;2020;48.682;9.024;2023-08-24T08:53:32;4.43;;;4.20;;
4011;SDS011;2020;48.682;9.024;2023-08-24T08:55:58;4.40;;;4.20;;
4011;SDS011;2020;48.682;9.024;2023-08-24T08:58:28;5.73;;;5.27;;
4011;SDS011;2020;48.682;9.024;2023-08-24T09:00:55;5.40;;;5.10;;
4011;SDS011;2020;48.682;9.024;2023-08-24T09:03:21;4.83;;;4.60;;
4011;SDS011;2020;48.682;9.024;2023-08-24T09:05:47;5.20;;;5.00;;
4011;SDS011;2020;48.682;9.024;2023-08-24T09:08:13;5.47;;;5.17;;
4011;SDS011;2020;48.682;9.024;2023-08-24T09:10:41;5.43;;;5.23;;
4011;SDS011;2020;48.682;9.024;2023-08-24T09:13:07;4.93;;;4.83;;
4011;SDS011;2020;48.682;9.024;2023-08-24T09:15:34;4.80;;;4.60;;
4011;SDS011;2020;48.682;9.024;2023-08-24T09:18:00;5.10;;;4.80;;
4011;SDS011;2020;48.682;9.024;2023-08-24T09:20:27;4.70;;;4.57;;
4011;SDS011;2020;48.682;9.024;2023-08-24T09:22:54;4.77;;;4.37;;
4011;SDS011;2020;48.682;9.024;2023-08-24T09:25:21;5.10;;;5.00;;
4011;SDS011;2020;48.682;9.024;2023-08-24T09:27:55;5.60;;;5.30;;
4011;SDS011;2020;48.682;9.024;2023-08-24T09:30:21;6.17;;;4.90;;
4011;SDS011;2020;48.682;9.024;2023-08-24T09:32:46;4.93;;;4.50;;
4011;SDS011;2020;48.682;9.024;2023-08-24T09:35:11;5.20;;;5.00;;
4011;SDS011;2020;48.682;9.024;2023-08-24T09:37:38;5.27;;;5.03;;
4011;SDS011;2020;48.682;9.024;2023-08-24T09:40:04;5.00;;;4.80;;
4011;SDS011;2020;48.682;9.024;2023-08-24T09:42:37;5.20;;;4.73;;
4011;SDS011;2020;48.682;9.024;2023-08-24T09:45:05;5.47;;;5.17;;
4011;SDS011;2020;48.682;9.024;2023-08-24T09:47:31;4.23;;;4.13;;
4011;SDS011;2020;48.682;9.024;2023-08-24T09:49:57;5.03;;;4.83;;
4011;SDS011;2020;48.682;9.024;2023-08-24T09:52:22;4.30;;;4.20;;
4011;SDS011;2020;48.682;9.024;2023-08-24T09:54:53;5.10;;;4.90;;
4011;SDS011;2020;48.682;9.024;2023-08-24T09:57:18;5.40;;;4.87;;
4011;SDS011;2020;48.682;9.024;2023-08-24T09:59:44;4.53;;;4.43;;
4011;SDS011;2020;48.682;9.024;2023-08-24T10:02:16;5.70;;;5.50;;
4011;SDS011;2020;48.682;9.024;2023-08-24T10:04:48;5.97;;;5.70;;
4011;SDS011;2020;48.682;9.024;2023-08-24T10:07:15;4.90;;;4.80;;
4011;SDS011;2020;48.682;9.024;2023-08-24T10:09:50;5.87;;;5.67;;
4011;SDS011;2020;48.682;9.024;2023-08-24T10:12:23;7.23;;;4.43;;
4011;SDS011;2020;48.682;9.024;2023-08-24T10:14:53;5.80;;;5.40;;
4011;SDS011;2020;48.682;9.024;2023-08-24T10:17:25;5.57;;;5.27;;
4011;SDS011;2020;48.682;9.024;2023-08-24T10:19:51;5.07;;;4.90;;
4011;SDS011;2020;48.682;9.024;2023-08-24T10:22:18;5.30;;;5.10;;
4011;SDS011;2020;48.682;9.024;2023-08-24T10:24:45;5.67;;;5.10;;
4011;SDS011;2020;48.682;9.024;2023-08-24T10:27:12;5.80;;;5.60;;
4011;SDS011;2020;48.682;9.024;2023-08-24T10:29:39;5.13;;;4.93;;
4011;SDS011;2020;48.682;9.024;2023-08-24T10:32:04;6.13;;;5.83;;
4011;SDS011;2020;48.682;9.024;2023-08-24T10:34:31;4.80;;;4.50;;
4011;SDS011;2020;48.682;9.024;2023-08-24T10:36:57;5.60;;;5.37;;
4011;SDS011;2020;48.682;9.024;2023-08-24T10:39:31;5.43;;;5.13;;
4011;SDS011;2020;48.682;9.024;2023-08-24T10:41:57;5.43;;;5.13;;
4011;SDS011;2020;48.682;9.024;2023-08-24T10:44:35;5.67;;;5.47;;
4011;SDS011;2020;48.682;9.024;2023-08-24T10:49:42;5.03;;;4.90;;
4011;SDS011;2020;48.682;9.024;2023-08-24T10:52:21;5.07;;;4.87;;
4011;SDS011;2020;48.682;9.024;2023-08-24T10:54:49;6.07;;;5.70;;
4011;SDS011;2020;48.682;9.024;2023-08-24T10:57:18;5.03;;;4.83;;
4011;SDS011;2020;48.682;9.024;2023-08-24T11:02:48;5.93;;;5.53;;
4011;SDS011;2020;48.682;9.024;2023-08-24T11:05:16;6.17;;;5.77;;
4011;SDS011;2020;48.682;9.024;2023-08-24T11:07:52;6.73;;;6.10;;
4011;SDS011;2020;48.682;9.024;2023-08-24T11:10:25;5.33;;;5.03;;
4011;SDS011;2020;48.682;9.024;2023-08-24T11:15:42;6.70;;;6.33;;
4011;SDS011;2020;48.682;9.024;2023-08-24T11:20:46;6.03;;;5.73;;
4011;SDS011;2020;48.682;9.024;2023-08-24T11:23:22;5.50;;;5.20;;
4011;SDS011;2020;48.682;9.024;2023-08-24T11:25:49;5.70;;;5.37;;
4011;SDS011;2020;48.682;9.024;2023-08-24T11:28:23;5.80;;;5.60;;
4011;SDS011;2020;48.682;9.024;2023-08-24T11:30:49;6.03;;;5.73;;
4011;SDS011;2020;48.682;9.024;2023-08-24T11:33:15;6.40;;;6.17;;
4011;SDS011;2020;48.682;9.024;2023-08-24T11:35:43;6.10;;;5.60;;
4011;SDS011;2020;48.682;9.024;2023-08-24T11:38:09;6.30;;;6.00;;
4011;SDS011;2020;48.682;9.024;2023-08-24T11:40:34;6.17;;;5.77;;
4011;SDS011;2020;48.682;9.024;2023-08-24T11:43:00;6.77;;;6.40;;
4011;SDS011;2020;48.682;9.024;2023-08-24T11:45:31;6.60;;;6.03;;
4011;SDS011;2020;48.682;9.024;2023-08-24T11:47:59;6.37;;;5.97;;
4011;SDS011;2020;48.682;9.024;2023-08-24T11:50:26;6.10;;;5.80;;
4011;SDS011;2020;48.682;9.024;2023-08-24T11:52:52;6.00;;;5.60;;
4011;SDS011;2020;48.682;9.024;2023-08-24T11:55:17;9.80;;;5.87;;
4011;SDS011;2020;48.682;9.024;2023-08-24T11:57:43;4.70;;;4.50;;
4011;SDS011;2020;48.682;9.024;2023-08-24T12:00:08;6.03;;;5.73;;
4011;SDS011;2020;48.682;9.024;2023-08-24T12:02:38;6.43;;;5.93;;
4011;SDS011;2020;48.682;9.024;2023-08-24T12:05:19;6.80;;;6.20;;
4011;SDS011;2020;48.682;9.024;2023-08-24T12:07:45;5.77;;;5.30;;
4011;SDS011;2020;48.682;9.024;2023-08-24T12:10:11;5.33;;;5.00;;
4011;SDS011;2020;48.682;9.024;2023-08-24T12:12:37;6.10;;;5.60;;
4011;SDS011;2020;48.682;9.024;2023-08-24T12:15:02;5.57;;;5.27;;
4011;SDS011;2020;48.682;9.024;2023-08-24T12:17:28;5.50;;;5.10;;
4011;SDS011;2020;48.682;9.024;2023-08-24T12:19:59;5.63;;;5.33;;
4011;SDS011;2020;48.682;9.024;2023-08-24T12:22:26;6.27;;;5.77;;
4011;SDS011;2020;48.682;9.024;2023-08-24T12:24:51;6.40;;;6.17;;
4011;SDS011;2020;48.682;9.024;2023-08-24T12:27:17;5.50;;;5.20;;
4011;SDS011;2020;48.682;9.024;2023-08-24T12:29:47;6.53;;;6.07;;
4011;SDS011;2020;48.682;9.024;2023-08-24T12:32:12;5.77;;;5.53;;
4011;SDS011;2020;48.682;9.024;2023-08-24T12:34:40;6.30;;;5.67;;
4011;SDS011;2020;48.682;9.024;2023-08-24T12:37:05;7.30;;;5.20;;
4011;SDS011;2020;48.682;9.024;2023-08-24T12:39:34;6.67;;;6.07;;
4011;SDS011;2020;48.682;9.024;2023-08-24T12:42:04;6.17;;;5.57;;
4011;SDS011;2020;48.682;9.024;2023-08-24T12:44:29;4.73;;;4.53;;
4011;SDS011;2020;48.682;9.024;2023-08-24T12:46:55;5.57;;;5.10;;
4011;SDS011;2020;48.682;9.024;2023-08-24T12:49:20;4.60;;;4.40;;
4011;SDS011;2020;48.682;9.024;2023-08-24T12:51:45;6.50;;;5.90;;
4011;SDS011;2020;48.682;9.024;2023-08-24T12:54:11;5.20;;;5.00;;
4011;SDS011;2020;48.682;9.024;2023-08-24T12:56:37;5.37;;;5.00;;
4011;SDS011;2020;48.682;9.024;2023-08-24T12:59:04;5.07;;;4.67;;
4011;SDS011;2020;48.682;9.024;2023-08-24T13:01:29;6.53;;;6.00;;
4011;SDS011;2020;48.682;9.024;2023-08-24T13:03:55;5.20;;;4.70;;
4011;SDS011;2020;48.682;9.024;2023-08-24T13:06:20;5.37;;;5.07;;
4011;SDS011;2020;48.682;9.024;2023-08-24T13:08:46;6.20;;;5.00;;
4011;SDS011;2020;48.682;9.024;2023-08-24T13:11:11;14.30;;;5.20;;
4011;SDS011;2020;48.682;9.024;2023-08-24T13:13:36;5.13;;;4.83;;
4011;SDS011;2020;48.682;9.024;2023-08-24T13:16:02;5.03;;;4.43;;
4011;SDS011;2020;48.682;9.024;2023-08-24T13:18:27;4.93;;;4.63;;
4011;SDS011;2020;48.682;9.024;2023-08-24T13:20:52;4.97;;;4.63;;
4011;SDS011;2020;48.682;9.024;2023-08-24T13:23:18;5.07;;;4.77;;
4011;SDS011;2020;48.682;9.024;2023-08-24T13:25:43;6.07;;;5.40;;
4011;SDS011;2020;48.682;9.024;2023-08-24T13:28:08;4.73;;;4.57;;
4011;SDS011;2020;48.682;9.024;2023-08-24T13:30:34;5.37;;;4.77;;
4011;SDS011;2020;48.682;9.024;2023-08-24T13:32:59;5.10;;;4.80;;
4011;SDS011;2020;48.682;9.024;2023-08-24T13:35:25;6.00;;;5.03;;
4011;SDS011;2020;48.682;9.024;2023-08-24T13:37:50;5.27;;;4.67;;
4011;SDS011;2020;48.682;9.024;2023-08-24T13:40:16;5.30;;;4.90;;
4011;SDS011;2020;48.682;9.024;2023-08-24T13:42:41;5.00;;;4.50;;
4011;SDS011;2020;48.682;9.024;2023-08-24T13:45:07;5.07;;;4.77;;
4011;SDS011;2020;48.682;9.024;2023-08-24T13:47:32;4.60;;;4.33;;
4011;SDS011;2020;48.682;9.024;2023-08-24T13:49:57;4.93;;;4.50;;
4011;SDS011;2020;48.682;9.024;2023-08-24T13:52:23;4.27;;;4.07;;
4011;SDS011;2020;48.682;9.024;2023-08-24T13:54:48;4.30;;;3.90;;
4011;SDS011;2020;48.682;9.024;2023-08-24T13:57:14;4.57;;;4.20;;
4011;SDS011;2020;48.682;9.024;2023-08-24T13:59:39;4.60;;;4.30;;
4011;SDS011;2020;48.682;9.024;2023-08-24T14:02:05;4.63;;;4.30;;
4011;SDS011;2020;48.682;9.024;2023-08-24T14:04:31;5.73;;;4.93;;
4011;SDS011;2020;48.682;9.024;2023-08-24T14:06:56;5.00;;;4.70;;
4011;SDS011;2020;48.682;9.024;2023-08-24T14:09:21;4.93;;;4.03;;
4011;SDS011;2020;48.682;9.024;2023-08-24T14:11:47;4.57;;;4.27;;
4011;SDS011;2020;48.682;9.024;2023-08-24T14:14:12;4.60;;;4.43;;
4011;SDS011;2020;48.682;9.024;2023-08-24T14:16:38;5.70;;;4.90;;
4011;SDS011;2020;48.682;9.024;2023-08-24T14:19:03;7.40;;;6.80;;
4011;SDS011;2020;48.682;9.024;2023-08-24T14:21:28;4.97;;;4.77;;
4011;SDS011;2020;48.682;9.024;2023-08-24T14:23:54;4.77;;;4.30;;
4011;SDS011;2020;48.682;9.024;2023-08-24T14:26:19;5.93;;;4.87;;
4011;SDS011;2020;48.682;9.024;2023-08-24T14:31:20;7.70;;;4.70;;
4011;SDS011;2020;48.682;9.024;2023-08-24T14:33:46;5.40;;;5.10;;
4011;SDS011;2020;48.682;9.024;2023-08-24T14:36:12;4.73;;;4.07;;
4011;SDS011;2020;48.682;9.024;2023-08-24T14:38:40;5.90;;;5.00;;
4011;SDS011;2020;48.682;9.024;2023-08-24T14:41:07;5.40;;;5.00;;
4011;SDS011;2020;48.682;9.024;2023-08-24T14:43:33;5.37;;;4.87;;
4011;SDS011;2020;48.682;9.024;2023-08-24T14:45:59;5.60;;;5.10;;
4011;SDS011;2020;48.682;9.024;2023-08-24T14:48:24;8.30;;;4.90;;
4011;SDS011;2020;48.682;9.024;2023-08-24T14:50:49;5.30;;;4.97;;
4011;SDS011;2020;48.682;9.024;2023-08-24T14:53:15;6.43;;;5.20;;
4011;SDS011;2020;48.682;9.024;2023-08-24T14:55:40;9.37;;;5.83;;
4011;SDS011;2020;48.682;9.024;2023-08-24T14:58:06;6.00;;;5.50;;
4011;SDS011;2020;48.682;9.024;2023-08-24T15:00:32;9.23;;;6.17;;
4011;SDS011;2020;48.682;9.024;2023-08-24T15:02:57;5.87;;;5.53;;
4011;SDS011;2020;48.682;9.024;2023-08-24T15:05:23;6.93;;;6.53;;
4011;SDS011;2020;48.682;9.024;2023-08-24T15:07:49;7.43;;;6.90;;
4011;SDS011;2020;48.682;9.024;2023-08-24T15:10:14;7.23;;;6.53;;
4011;SDS011;2020;48.682;9.024;2023-08-24T15:12:40;6.50;;;6.10;;
4011;SDS011;2020;48.682;9.024;2023-08-24T15:15:05;7.20;;;6.70;;
4011;SDS011;2020;48.682;9.024;2023-08-24T15:17:31;7.00;;;6.47;;
4011;SDS011;2020;48.682;9.024;2023-08-24T15:19:57;6.60;;;6.30;;
4011;SDS011;2020;48.682;9.024;2023-08-24T15:22:22;6.40;;;6.10;;
4011;SDS011;2020;48.682;9.024;2023-08-24T15:24:49;5.23;;;5.03;;
4011;SDS011;2020;48.682;9.024;2023-08-24T15:27:14;5.17;;;4.17;;